sensor_id;sensor_type;location;lat;lon;timestamp;temperature;humidity
25536;DHT22;13431;51.352;6.412;2023-02-04T00:00:16;7.70;99.90
25536;DHT22;13431;51.352;6.412;2023-02-04T00:02:44;7.70;99.90
25536;DHT22;13431;51.352;6.412;2023-02-04T00:05:12;7.70;99.90
25536;DHT22;13431;51.352;6.412;2023-02-04T00:07:39;7.80;99.90
25536;DHT22;13431;51.352;6.412;2023-02-04T00:10:09;7.70;99.90
25536;DHT22;13431;51.352;6.412;2023-02-04T00:12:36;7.70;99.90
25536;DHT22;13431;51.352;6.412;2023-02-04T00:15:04;7.70;99.90
25536;DHT22;13431;51.352;6.412;2023-02-04T00:17:32;7.60;99.90
25536;DHT22;13431;51.352;6.412;2023-02-04T00:19:59;7.70;99.90
25536;DHT22;13431;51.352;6.412;2023-02-04T00:22:27;7.60;99.90
25536;DHT22;13431;51.352;6.412;2023-02-04T00:24:55;7.50;99.90
25536;DHT22;13431;51.352;6.412;2023-02-04T00:27:22;7.50;99.90
25536;DHT22;13431;51.352;6.412;2023-02-04T00:29:50;7.50;99.90
25536;DHT22;13431;51.352;6.412;2023-02-04T00:32:17;7.30;99.90
25536;DHT22;13431;51.352;6.412;2023-02-04T00:34:45;7.30;99.90
25536;DHT22;13431;51.352;6.412;2023-02-04T00:37:13;7.30;99.90
25536;DHT22;13431;51.352;6.412;2023-02-04T00:39:41;7.30;99.90
25536;DHT22;13431;51.352;6.412;2023-02-04T00:42:09;7.30;99.90
25536;DHT22;13431;51.352;6.412;2023-02-04T00:44:36;7.30;99.90
25536;DHT22;13431;51.352;6.412;2023-02-04T00:47:04;7.30;99.90
25536;DHT22;13431;51.352;6.412;2023-02-04T00:49:34;7.20;99.90
25536;DHT22;13431;51.352;6.412;2023-02-04T00:52:08;7.20;99.90
25536;DHT22;13431;51.352;6.412;2023-02-04T00:54:36;7.30;99.90
25536;DHT22;13431;51.352;6.412;2023-02-04T00:57:03;7.30;99.90
25536;DHT22;13431;51.352;6.412;2023-02-04T00:59:31;7.40;99.90
25536;DHT22;13431;51.352;6.412;2023-02-04T01:01:58;7.40;99.90
25536;DHT22;13431;51.352;6.412;2023-02-04T01:04:26;7.50;99.90
25536;DHT22;13431;51.352;6.412;2023-02-04T01:06:54;7.50;99.90
25536;DHT22;13431;51.352;6.412;2023-02-04T01:09:21;7.40;99.90
25536;DHT22;13431;51.352;6.412;2023-02-04T01:11:49;7.40;99.90
25536;DHT22;13431;51.352;6.412;2023-02-04T01:14:16;7.40;99.90
25536;DHT22;13431;51.352;6.412;2023-02-04T01:16:43;7.40;99.90
25536;DHT22;13431;51.352;6.412;2023-02-04T01:19:11;7.40;99.90
25536;DHT22;13431;51.352;6.412;2023-02-04T01:21:39;7.50;99.90
25536;DHT22;13431;51.352;6.412;2023-02-04T01:24:07;7.40;99.90
25536;DHT22;13431;51.352;6.412;2023-02-04T01:26:54;7.40;99.90
25536;DHT22;13431;51.352;6.412;2023-02-04T01:29:22;7.40;99.90
25536;DHT22;13431;51.352;6.412;2023-02-04T01:31:50;7.40;99.90
25536;DHT22;13431;51.352;6.412;2023-02-04T01:34:17;7.40;99.90
25536;DHT22;13431;51.352;6.412;2023-02-04T01:36:44;7.40;99.90
25536;DHT22;13431;51.352;6.412;2023-02-04T01:39:12;7.40;99.90
25536;DHT22;13431;51.352;6.412;2023-02-04T01:41:39;7.40;99.90
25536;DHT22;13431;51.352;6.412;2023-02-04T01:44:07;7.40;99.90
25536;DHT22;13431;51.352;6.412;2023-02-04T01:46:35;7.40;99.90
25536;DHT22;13431;51.352;6.412;2023-02-04T01:49:07;7.40;99.90
25536;DHT22;13431;51.352;6.412;2023-02-04T01:51:36;7.40;99.90
25536;DHT22;13431;51.352;6.412;2023-02-04T01:54:03;7.30;99.90
25536;DHT22;13431;51.352;6.412;2023-02-04T01:56:31;7.40;99.90
25536;DHT22;13431;51.352;6.412;2023-02-04T01:58:59;7.40;99.90
25536;DHT22;13431;51.352;6.412;2023-02-04T02:04:05;7.30;99.90
25536;DHT22;13431;51.352;6.412;2023-02-04T02:06:33;7.30;99.90
25536;DHT22;13431;51.352;6.412;2023-02-04T02:09:02;7.30;99.90
25536;DHT22;13431;51.352;6.412;2023-02-04T02:11:29;7.20;99.90
25536;DHT22;13431;51.352;6.412;2023-02-04T02:13:59;7.20;99.90
25536;DHT22;13431;51.352;6.412;2023-02-04T02:16:28;7.20;99.90
25536;DHT22;13431;51.352;6.412;2023-02-04T02:18:56;7.20;99.90
25536;DHT22;13431;51.352;6.412;2023-02-04T02:21:38;7.20;99.90
25536;DHT22;13431;51.352;6.412;2023-02-04T02:24:29;7.20;99.90
25536;DHT22;13431;51.352;6.412;2023-02-04T02:27:03;7.20;99.90
25536;DHT22;13431;51.352;6.412;2023-02-04T02:29:31;7.10;99.90
25536;DHT22;13431;51.352;6.412;2023-02-04T02:31:58;7.10;99.90
25536;DHT22;13431;51.352;6.412;2023-02-04T02:34:27;7.00;99.90
25536;DHT22;13431;51.352;6.412;2023-02-04T02:36:56;6.80;99.90
25536;DHT22;13431;51.352;6.412;2023-02-04T02:39:24;6.70;99.90
25536;DHT22;13431;51.352;6.412;2023-02-04T02:41:53;6.70;99.90
25536;DHT22;13431;51.352;6.412;2023-02-04T02:44:21;6.70;99.90
25536;DHT22;13431;51.352;6.412;2023-02-04T02:46:50;6.60;99.90
25536;DHT22;13431;51.352;6.412;2023-02-04T02:49:18;6.70;99.90
25536;DHT22;13431;51.352;6.412;2023-02-04T02:51:47;6.80;99.90
25536;DHT22;13431;51.352;6.412;2023-02-04T02:56:52;6.80;99.90
25536;DHT22;13431;51.352;6.412;2023-02-04T02:59:22;6.90;99.90
25536;DHT22;13431;51.352;6.412;2023-02-04T03:01:53;6.90;99.90
25536;DHT22;13431;51.352;6.412;2023-02-04T03:04:22;6.90;99.90
25536;DHT22;13431;51.352;6.412;2023-02-04T03:06:51;6.90;99.90
25536;DHT22;13431;51.352;6.412;2023-02-04T03:09:20;6.80;99.90
25536;DHT22;13431;51.352;6.412;2023-02-04T03:11:48;6.80;99.90
25536;DHT22;13431;51.352;6.412;2023-02-04T03:14:16;6.80;99.90
25536;DHT22;13431;51.352;6.412;2023-02-04T03:16:44;6.70;99.90
25536;DHT22;13431;51.352;6.412;2023-02-04T03:19:12;6.60;99.90
25536;DHT22;13431;51.352;6.412;2023-02-04T03:21:40;6.50;99.90
25536;DHT22;13431;51.352;6.412;2023-02-04T03:24:08;6.50;99.90
25536;DHT22;13431;51.352;6.412;2023-02-04T03:26:36;6.40;99.90
25536;DHT22;13431;51.352;6.412;2023-02-04T03:29:08;6.40;99.90
25536;DHT22;13431;51.352;6.412;2023-02-04T03:31:36;6.30;99.90
25536;DHT22;13431;51.352;6.412;2023-02-04T03:34:04;6.30;99.90
25536;DHT22;13431;51.352;6.412;2023-02-04T03:36:32;6.20;99.90
25536;DHT22;13431;51.352;6.412;2023-02-04T03:39:00;6.20;99.90
25536;DHT22;13431;51.352;6.412;2023-02-04T03:41:28;6.20;99.90
25536;DHT22;13431;51.352;6.412;2023-02-04T03:43:56;6.20;99.90
25536;DHT22;13431;51.352;6.412;2023-02-04T03:46:23;6.20;99.90
25536;DHT22;13431;51.352;6.412;2023-02-04T03:48:52;6.20;99.90
25536;DHT22;13431;51.352;6.412;2023-02-04T03:51:19;6.10;99.90
25536;DHT22;13431;51.352;6.412;2023-02-04T03:53:46;6.10;99.90
25536;DHT22;13431;51.352;6.412;2023-02-04T03:56:14;6.20;99.90
25536;DHT22;13431;51.352;6.412;2023-02-04T03:58:41;6.20;99.90
25536;DHT22;13431;51.352;6.412;2023-02-04T04:01:08;6.20;99.90
25536;DHT22;13431;51.352;6.412;2023-02-04T04:03:36;6.10;99.90
25536;DHT22;13431;51.352;6.412;2023-02-04T04:06:04;6.10;99.90
25536;DHT22;13431;51.352;6.412;2023-02-04T04:08:33;6.10;99.90
25536;DHT22;13431;51.352;6.412;2023-02-04T04:11:01;6.00;99.90
25536;DHT22;13431;51.352;6.412;2023-02-04T04:13:28;5.90;99.90
25536;DHT22;13431;51.352;6.412;2023-02-04T04:15:55;5.90;99.90
25536;DHT22;13431;51.352;6.412;2023-02-04T04:18:23;5.80;99.90
25536;DHT22;13431;51.352;6.412;2023-02-04T04:20:50;5.80;99.90
25536;DHT22;13431;51.352;6.412;2023-02-04T04:23:17;5.80;99.90
25536;DHT22;13431;51.352;6.412;2023-02-04T04:25:45;5.70;99.90
25536;DHT22;13431;51.352;6.412;2023-02-04T04:28:12;5.60;99.90
25536;DHT22;13431;51.352;6.412;2023-02-04T04:30:39;5.50;99.90
25536;DHT22;13431;51.352;6.412;2023-02-04T04:33:07;5.50;99.90
25536;DHT22;13431;51.352;6.412;2023-02-04T04:35:37;5.50;99.90
25536;DHT22;13431;51.352;6.412;2023-02-04T04:38:04;5.40;99.90
25536;DHT22;13431;51.352;6.412;2023-02-04T04:40:31;5.40;99.90
25536;DHT22;13431;51.352;6.412;2023-02-04T04:42:59;5.40;99.90
25536;DHT22;13431;51.352;6.412;2023-02-04T04:45:27;5.40;99.90
25536;DHT22;13431;51.352;6.412;2023-02-04T04:47:54;5.40;99.90
25536;DHT22;13431;51.352;6.412;2023-02-04T04:50:21;5.40;99.90
25536;DHT22;13431;51.352;6.412;2023-02-04T04:52:49;5.40;99.90
25536;DHT22;13431;51.352;6.412;2023-02-04T04:55:16;5.40;99.90
25536;DHT22;13431;51.352;6.412;2023-02-04T04:57:43;5.40;99.90
25536;DHT22;13431;51.352;6.412;2023-02-04T05:00:15;5.40;99.90
25536;DHT22;13431;51.352;6.412;2023-02-04T05:02:43;5.30;99.90
25536;DHT22;13431;51.352;6.412;2023-02-04T05:05:11;5.30;99.90
25536;DHT22;13431;51.352;6.412;2023-02-04T05:07:39;5.20;99.90
25536;DHT22;13431;51.352;6.412;2023-02-04T05:10:08;5.10;99.90
25536;DHT22;13431;51.352;6.412;2023-02-04T05:12:35;5.00;99.90
25536;DHT22;13431;51.352;6.412;2023-02-04T05:15:03;4.90;99.90
25536;DHT22;13431;51.352;6.412;2023-02-04T05:17:30;4.90;99.90
25536;DHT22;13431;51.352;6.412;2023-02-04T05:19:58;5.00;99.90
25536;DHT22;13431;51.352;6.412;2023-02-04T05:22:25;5.10;99.90
25536;DHT22;13431;51.352;6.412;2023-02-04T05:24:52;5.20;99.90
25536;DHT22;13431;51.352;6.412;2023-02-04T05:27:20;5.30;99.90
25536;DHT22;13431;51.352;6.412;2023-02-04T05:29:47;5.30;99.90
25536;DHT22;13431;51.352;6.412;2023-02-04T05:32:14;5.30;99.90
25536;DHT22;13431;51.352;6.412;2023-02-04T05:34:42;5.30;99.90
25536;DHT22;13431;51.352;6.412;2023-02-04T05:37:09;5.40;99.90
25536;DHT22;13431;51.352;6.412;2023-02-04T05:39:37;5.40;99.90
25536;DHT22;13431;51.352;6.412;2023-02-04T05:42:04;5.40;99.90
25536;DHT22;13431;51.352;6.412;2023-02-04T05:44:31;5.40;99.90
25536;DHT22;13431;51.352;6.412;2023-02-04T05:46:59;5.50;99.90
25536;DHT22;13431;51.352;6.412;2023-02-04T05:49:26;5.50;99.90
25536;DHT22;13431;51.352;6.412;2023-02-04T05:51:53;5.60;99.90
25536;DHT22;13431;51.352;6.412;2023-02-04T05:54:21;5.60;99.90
25536;DHT22;13431;51.352;6.412;2023-02-04T05:56:48;5.70;99.90
25536;DHT22;13431;51.352;6.412;2023-02-04T05:59:17;5.70;99.90
25536;DHT22;13431;51.352;6.412;2023-02-04T06:01:45;5.70;99.90
25536;DHT22;13431;51.352;6.412;2023-02-04T06:04:12;5.80;99.90
25536;DHT22;13431;51.352;6.412;2023-02-04T06:06:42;5.80;99.90
25536;DHT22;13431;51.352;6.412;2023-02-04T06:09:10;5.80;99.90
25536;DHT22;13431;51.352;6.412;2023-02-04T06:11:37;5.90;99.90
25536;DHT22;13431;51.352;6.412;2023-02-04T06:14:05;5.90;99.90
25536;DHT22;13431;51.352;6.412;2023-02-04T06:16:36;5.90;99.90
25536;DHT22;13431;51.352;6.412;2023-02-04T06:19:04;5.90;99.90
25536;DHT22;13431;51.352;6.412;2023-02-04T06:21:31;5.90;99.90
25536;DHT22;13431;51.352;6.412;2023-02-04T06:23:59;5.90;99.90
25536;DHT22;13431;51.352;6.412;2023-02-04T06:26:27;5.90;99.90
25536;DHT22;13431;51.352;6.412;2023-02-04T06:28:55;5.90;99.90
25536;DHT22;13431;51.352;6.412;2023-02-04T06:31:22;5.80;99.90
25536;DHT22;13431;51.352;6.412;2023-02-04T06:33:50;5.70;99.90
25536;DHT22;13431;51.352;6.412;2023-02-04T06:36:18;5.60;99.90
25536;DHT22;13431;51.352;6.412;2023-02-04T06:38:45;5.50;99.90
25536;DHT22;13431;51.352;6.412;2023-02-04T06:41:13;5.50;99.90
25536;DHT22;13431;51.352;6.412;2023-02-04T06:43:41;5.60;99.90
25536;DHT22;13431;51.352;6.412;2023-02-04T06:46:10;5.50;99.90
25536;DHT22;13431;51.352;6.412;2023-02-04T06:48:39;5.50;99.90
25536;DHT22;13431;51.352;6.412;2023-02-04T06:51:07;5.60;99.90
25536;DHT22;13431;51.352;6.412;2023-02-04T06:53:36;5.60;99.90
25536;DHT22;13431;51.352;6.412;2023-02-04T06:56:05;5.70;99.90
25536;DHT22;13431;51.352;6.412;2023-02-04T06:58:33;5.80;99.90
25536;DHT22;13431;51.352;6.412;2023-02-04T07:01:01;5.90;99.90
25536;DHT22;13431;51.352;6.412;2023-02-04T07:03:29;5.90;99.90
25536;DHT22;13431;51.352;6.412;2023-02-04T07:05:56;5.90;99.90
25536;DHT22;13431;51.352;6.412;2023-02-04T07:08:25;6.00;99.90
25536;DHT22;13431;51.352;6.412;2023-02-04T07:10:53;6.00;99.90
25536;DHT22;13431;51.352;6.412;2023-02-04T07:13:21;6.10;99.90
25536;DHT22;13431;51.352;6.412;2023-02-04T07:15:49;6.00;99.90
25536;DHT22;13431;51.352;6.412;2023-02-04T07:18:17;6.10;99.90
25536;DHT22;13431;51.352;6.412;2023-02-04T07:20:45;6.10;99.90
25536;DHT22;13431;51.352;6.412;2023-02-04T07:23:13;6.10;99.90
25536;DHT22;13431;51.352;6.412;2023-02-04T07:25:40;6.20;99.90
25536;DHT22;13431;51.352;6.412;2023-02-04T07:28:08;6.20;99.90
25536;DHT22;13431;51.352;6.412;2023-02-04T07:30:35;6.20;99.90
25536;DHT22;13431;51.352;6.412;2023-02-04T07:33:03;6.20;99.90
25536;DHT22;13431;51.352;6.412;2023-02-04T07:35:31;6.20;99.90
25536;DHT22;13431;51.352;6.412;2023-02-04T07:37:58;6.30;99.90
25536;DHT22;13431;51.352;6.412;2023-02-04T07:40:25;6.30;99.90
25536;DHT22;13431;51.352;6.412;2023-02-04T07:42:53;6.40;99.90
25536;DHT22;13431;51.352;6.412;2023-02-04T07:45:22;6.40;99.90
25536;DHT22;13431;51.352;6.412;2023-02-04T07:47:50;6.40;99.90
25536;DHT22;13431;51.352;6.412;2023-02-04T07:50:17;6.50;99.90
25536;DHT22;13431;51.352;6.412;2023-02-04T07:52:45;6.50;99.90
25536;DHT22;13431;51.352;6.412;2023-02-04T07:55:12;6.50;99.90
25536;DHT22;13431;51.352;6.412;2023-02-04T07:57:41;6.50;99.90
25536;DHT22;13431;51.352;6.412;2023-02-04T08:00:09;6.50;99.90
25536;DHT22;13431;51.352;6.412;2023-02-04T08:02:40;6.60;99.90
25536;DHT22;13431;51.352;6.412;2023-02-04T08:05:08;6.60;99.90
25536;DHT22;13431;51.352;6.412;2023-02-04T08:07:36;6.70;99.90
25536;DHT22;13431;51.352;6.412;2023-02-04T08:10:04;6.70;99.90
25536;DHT22;13431;51.352;6.412;2023-02-04T08:12:33;6.80;99.90
25536;DHT22;13431;51.352;6.412;2023-02-04T08:15:00;7.00;99.90
25536;DHT22;13431;51.352;6.412;2023-02-04T08:17:28;7.00;99.90
25536;DHT22;13431;51.352;6.412;2023-02-04T08:19:55;7.10;99.90
25536;DHT22;13431;51.352;6.412;2023-02-04T08:22:23;7.10;99.90
25536;DHT22;13431;51.352;6.412;2023-02-04T08:24:50;7.30;99.90
25536;DHT22;13431;51.352;6.412;2023-02-04T08:27:18;7.40;99.90
25536;DHT22;13431;51.352;6.412;2023-02-04T08:29:45;7.60;99.90
25536;DHT22;13431;51.352;6.412;2023-02-04T08:32:12;7.70;99.90
25536;DHT22;13431;51.352;6.412;2023-02-04T08:34:40;7.70;99.90
25536;DHT22;13431;51.352;6.412;2023-02-04T08:37:07;7.70;99.90
25536;DHT22;13431;51.352;6.412;2023-02-04T08:39:34;7.70;99.90
25536;DHT22;13431;51.352;6.412;2023-02-04T08:42:02;7.60;99.90
25536;DHT22;13431;51.352;6.412;2023-02-04T08:44:29;7.60;99.90
25536;DHT22;13431;51.352;6.412;2023-02-04T08:46:56;7.70;99.90
25536;DHT22;13431;51.352;6.412;2023-02-04T08:49:24;7.70;99.90
25536;DHT22;13431;51.352;6.412;2023-02-04T08:51:51;7.80;99.90
25536;DHT22;13431;51.352;6.412;2023-02-04T08:54:18;7.90;99.90
25536;DHT22;13431;51.352;6.412;2023-02-04T08:56:46;8.10;99.90
25536;DHT22;13431;51.352;6.412;2023-02-04T08:59:13;8.20;99.90
25536;DHT22;13431;51.352;6.412;2023-02-04T09:01:40;8.30;99.90
25536;DHT22;13431;51.352;6.412;2023-02-04T09:04:08;8.40;99.90
25536;DHT22;13431;51.352;6.412;2023-02-04T09:06:36;8.30;99.90
25536;DHT22;13431;51.352;6.412;2023-02-04T09:09:03;8.40;99.90
25536;DHT22;13431;51.352;6.412;2023-02-04T09:11:30;8.40;99.90
25536;DHT22;13431;51.352;6.412;2023-02-04T09:13:58;8.30;99.90
25536;DHT22;13431;51.352;6.412;2023-02-04T09:16:25;8.40;99.90
25536;DHT22;13431;51.352;6.412;2023-02-04T09:18:52;8.60;99.90
25536;DHT22;13431;51.352;6.412;2023-02-04T09:21:20;8.70;99.90
25536;DHT22;13431;51.352;6.412;2023-02-04T09:23:47;8.90;99.90
25536;DHT22;13431;51.352;6.412;2023-02-04T09:26:15;8.80;99.90
25536;DHT22;13431;51.352;6.412;2023-02-04T09:28:42;8.90;99.90
25536;DHT22;13431;51.352;6.412;2023-02-04T09:31:10;9.10;99.90
25536;DHT22;13431;51.352;6.412;2023-02-04T09:33:38;9.20;99.90
25536;DHT22;13431;51.352;6.412;2023-02-04T09:36:05;9.30;99.90
25536;DHT22;13431;51.352;6.412;2023-02-04T09:38:35;9.40;99.90
25536;DHT22;13431;51.352;6.412;2023-02-04T09:41:06;9.60;99.90
25536;DHT22;13431;51.352;6.412;2023-02-04T09:43:37;9.70;99.90
25536;DHT22;13431;51.352;6.412;2023-02-04T09:46:28;9.90;99.90
25536;DHT22;13431;51.352;6.412;2023-02-04T09:48:57;10.10;99.90
25536;DHT22;13431;51.352;6.412;2023-02-04T09:51:27;10.10;99.90
25536;DHT22;13431;51.352;6.412;2023-02-04T09:54:07;10.20;99.90
25536;DHT22;13431;51.352;6.412;2023-02-04T09:56:38;10.40;99.90
25536;DHT22;13431;51.352;6.412;2023-02-04T09:59:19;10.60;99.90
25536;DHT22;13431;51.352;6.412;2023-02-04T10:01:55;10.80;99.90
25536;DHT22;13431;51.352;6.412;2023-02-04T10:04:24;10.90;99.90
25536;DHT22;13431;51.352;6.412;2023-02-04T10:06:51;11.10;99.90
25536;DHT22;13431;51.352;6.412;2023-02-04T10:09:19;10.90;99.90
25536;DHT22;13431;51.352;6.412;2023-02-04T10:11:47;10.60;99.90
25536;DHT22;13431;51.352;6.412;2023-02-04T10:14:18;10.40;99.90
25536;DHT22;13431;51.352;6.412;2023-02-04T10:16:54;10.30;99.90
25536;DHT22;13431;51.352;6.412;2023-02-04T10:19:26;10.30;99.90
25536;DHT22;13431;51.352;6.412;2023-02-04T10:21:54;10.50;99.90
25536;DHT22;13431;51.352;6.412;2023-02-04T10:24:24;10.60;99.90
25536;DHT22;13431;51.352;6.412;2023-02-04T10:26:53;10.70;99.90
25536;DHT22;13431;51.352;6.412;2023-02-04T10:29:22;10.80;99.90
25536;DHT22;13431;51.352;6.412;2023-02-04T10:31:52;11.10;99.90
25536;DHT22;13431;51.352;6.412;2023-02-04T10:34:31;11.30;99.90
25536;DHT22;13431;51.352;6.412;2023-02-04T10:36:59;11.60;99.90
25536;DHT22;13431;51.352;6.412;2023-02-04T10:39:28;11.40;99.90
25536;DHT22;13431;51.352;6.412;2023-02-04T10:41:58;11.50;99.90
25536;DHT22;13431;51.352;6.412;2023-02-04T10:44:33;11.30;99.90
25536;DHT22;13431;51.352;6.412;2023-02-04T10:47:04;11.20;99.90
25536;DHT22;13431;51.352;6.412;2023-02-04T10:49:32;11.20;99.90
25536;DHT22;13431;51.352;6.412;2023-02-04T10:52:00;11.20;99.90
25536;DHT22;13431;51.352;6.412;2023-02-04T10:54:34;11.10;99.90
25536;DHT22;13431;51.352;6.412;2023-02-04T10:57:21;11.30;99.90
25536;DHT22;13431;51.352;6.412;2023-02-04T10:59:52;11.50;99.90
25536;DHT22;13431;51.352;6.412;2023-02-04T11:02:40;11.50;99.90
25536;DHT22;13431;51.352;6.412;2023-02-04T11:05:20;11.60;99.90
25536;DHT22;13431;51.352;6.412;2023-02-04T11:07:50;11.60;99.90
25536;DHT22;13431;51.352;6.412;2023-02-04T11:10:21;11.60;99.90
25536;DHT22;13431;51.352;6.412;2023-02-04T11:20:48;11.60;99.90
25536;DHT22;13431;51.352;6.412;2023-02-04T11:33:50;12.50;99.90
25536;DHT22;13431;51.352;6.412;2023-02-04T11:36:28;12.50;99.90
25536;DHT22;13431;51.352;6.412;2023-02-04T11:38:56;12.50;99.90
25536;DHT22;13431;51.352;6.412;2023-02-04T11:41:33;12.60;99.90
25536;DHT22;13431;51.352;6.412;2023-02-04T11:44:00;12.70;99.90
25536;DHT22;13431;51.352;6.412;2023-02-04T11:46:28;12.80;99.90
25536;DHT22;13431;51.352;6.412;2023-02-04T11:48:57;12.60;99.90
25536;DHT22;13431;51.352;6.412;2023-02-04T11:51:31;12.20;99.90
25536;DHT22;13431;51.352;6.412;2023-02-04T11:53:59;11.90;99.90
25536;DHT22;13431;51.352;6.412;2023-02-04T11:56:28;11.70;99.90
25536;DHT22;13431;51.352;6.412;2023-02-04T11:58:57;11.60;99.90
25536;DHT22;13431;51.352;6.412;2023-02-04T12:01:30;11.50;99.90
25536;DHT22;13431;51.352;6.412;2023-02-04T12:04:00;11.50;99.90
25536;DHT22;13431;51.352;6.412;2023-02-04T12:06:34;11.60;99.90
25536;DHT22;13431;51.352;6.412;2023-02-04T12:09:23;11.80;99.90
25536;DHT22;13431;51.352;6.412;2023-02-04T12:11:56;11.90;99.90
25536;DHT22;13431;51.352;6.412;2023-02-04T12:14:32;12.00;99.90
25536;DHT22;13431;51.352;6.412;2023-02-04T12:17:00;11.70;99.90
25536;DHT22;13431;51.352;6.412;2023-02-04T12:19:27;11.70;99.90
25536;DHT22;13431;51.352;6.412;2023-02-04T12:21:55;11.70;99.90
25536;DHT22;13431;51.352;6.412;2023-02-04T12:24:22;11.70;99.90
25536;DHT22;13431;51.352;6.412;2023-02-04T12:26:49;11.80;99.90
25536;DHT22;13431;51.352;6.412;2023-02-04T12:29:17;11.90;99.90
25536;DHT22;13431;51.352;6.412;2023-02-04T12:31:45;11.90;99.90
25536;DHT22;13431;51.352;6.412;2023-02-04T12:34:12;11.80;99.90
25536;DHT22;13431;51.352;6.412;2023-02-04T12:36:40;11.80;99.90
25536;DHT22;13431;51.352;6.412;2023-02-04T12:39:07;11.90;99.90
25536;DHT22;13431;51.352;6.412;2023-02-04T12:41:36;11.90;99.90
25536;DHT22;13431;51.352;6.412;2023-02-04T12:44:03;11.90;99.90
25536;DHT22;13431;51.352;6.412;2023-02-04T12:46:31;12.00;99.90
25536;DHT22;13431;51.352;6.412;2023-02-04T12:48:58;11.90;99.90
25536;DHT22;13431;51.352;6.412;2023-02-04T12:51:25;11.80;99.90
25536;DHT22;13431;51.352;6.412;2023-02-04T12:53:53;11.90;99.90
25536;DHT22;13431;51.352;6.412;2023-02-04T12:56:20;12.10;99.90
25536;DHT22;13431;51.352;6.412;2023-02-04T12:58:50;12.00;99.90
25536;DHT22;13431;51.352;6.412;2023-02-04T13:01:17;12.00;99.90
25536;DHT22;13431;51.352;6.412;2023-02-04T13:03:45;11.90;99.90
25536;DHT22;13431;51.352;6.412;2023-02-04T13:06:12;11.90;99.90
25536;DHT22;13431;51.352;6.412;2023-02-04T13:08:39;11.90;99.90
25536;DHT22;13431;51.352;6.412;2023-02-04T13:11:06;11.70;99.90
25536;DHT22;13431;51.352;6.412;2023-02-04T13:13:34;11.80;99.90
25536;DHT22;13431;51.352;6.412;2023-02-04T13:16:01;11.70;99.90
25536;DHT22;13431;51.352;6.412;2023-02-04T13:18:29;11.70;99.90
25536;DHT22;13431;51.352;6.412;2023-02-04T13:20:56;11.70;99.90
25536;DHT22;13431;51.352;6.412;2023-02-04T13:23:23;11.60;99.90
25536;DHT22;13431;51.352;6.412;2023-02-04T13:25:51;11.50;99.90
25536;DHT22;13431;51.352;6.412;2023-02-04T13:28:18;11.40;99.90
25536;DHT22;13431;51.352;6.412;2023-02-04T13:30:45;11.30;99.90
25536;DHT22;13431;51.352;6.412;2023-02-04T13:33:12;11.20;99.90
25536;DHT22;13431;51.352;6.412;2023-02-04T13:35:40;11.20;99.90
25536;DHT22;13431;51.352;6.412;2023-02-04T13:38:07;11.30;99.90
25536;DHT22;13431;51.352;6.412;2023-02-04T13:40:34;11.40;99.90
25536;DHT22;13431;51.352;6.412;2023-02-04T13:43:02;11.50;99.90
25536;DHT22;13431;51.352;6.412;2023-02-04T13:45:29;11.50;99.90
25536;DHT22;13431;51.352;6.412;2023-02-04T13:47:57;11.50;99.90
25536;DHT22;13431;51.352;6.412;2023-02-04T13:50:24;11.50;99.90
25536;DHT22;13431;51.352;6.412;2023-02-04T13:52:52;11.40;99.90
25536;DHT22;13431;51.352;6.412;2023-02-04T13:55:19;11.50;99.90
25536;DHT22;13431;51.352;6.412;2023-02-04T13:57:49;11.50;99.90
25536;DHT22;13431;51.352;6.412;2023-02-04T14:00:16;11.40;99.90
25536;DHT22;13431;51.352;6.412;2023-02-04T14:02:44;11.40;99.90
25536;DHT22;13431;51.352;6.412;2023-02-04T14:05:11;11.40;99.90
25536;DHT22;13431;51.352;6.412;2023-02-04T14:07:38;11.40;99.90
25536;DHT22;13431;51.352;6.412;2023-02-04T14:10:06;11.40;99.90
25536;DHT22;13431;51.352;6.412;2023-02-04T14:12:34;11.30;99.90
25536;DHT22;13431;51.352;6.412;2023-02-04T14:15:01;11.20;99.90
25536;DHT22;13431;51.352;6.412;2023-02-04T14:17:28;11.10;99.90
25536;DHT22;13431;51.352;6.412;2023-02-04T14:19:56;11.10;99.90
25536;DHT22;13431;51.352;6.412;2023-02-04T14:22:23;11.00;99.90
25536;DHT22;13431;51.352;6.412;2023-02-04T14:24:50;10.80;99.90
25536;DHT22;13431;51.352;6.412;2023-02-04T14:27:18;10.70;99.90
25536;DHT22;13431;51.352;6.412;2023-02-04T14:29:45;10.60;99.90
25536;DHT22;13431;51.352;6.412;2023-02-04T14:32:12;10.60;99.90
25536;DHT22;13431;51.352;6.412;2023-02-04T14:34:40;10.60;99.90
25536;DHT22;13431;51.352;6.412;2023-02-04T14:37:07;10.60;99.90
25536;DHT22;13431;51.352;6.412;2023-02-04T14:39:34;10.60;99.90
25536;DHT22;13431;51.352;6.412;2023-02-04T14:42:01;10.50;99.90
25536;DHT22;13431;51.352;6.412;2023-02-04T14:44:31;10.60;99.90
25536;DHT22;13431;51.352;6.412;2023-02-04T14:46:58;10.60;99.90
25536;DHT22;13431;51.352;6.412;2023-02-04T14:49:26;10.60;99.90
25536;DHT22;13431;51.352;6.412;2023-02-04T14:51:53;10.60;99.90
25536;DHT22;13431;51.352;6.412;2023-02-04T14:54:20;10.50;99.90
25536;DHT22;13431;51.352;6.412;2023-02-04T14:56:48;10.50;99.90
25536;DHT22;13431;51.352;6.412;2023-02-04T14:59:16;10.40;99.90
25536;DHT22;13431;51.352;6.412;2023-02-04T15:01:43;10.30;99.90
25536;DHT22;13431;51.352;6.412;2023-02-04T15:04:12;10.20;99.90
25536;DHT22;13431;51.352;6.412;2023-02-04T15:06:40;10.10;99.90
25536;DHT22;13431;51.352;6.412;2023-02-04T15:09:07;10.00;99.90
25536;DHT22;13431;51.352;6.412;2023-02-04T15:11:34;10.00;99.90
25536;DHT22;13431;51.352;6.412;2023-02-04T15:14:02;10.00;99.90
25536;DHT22;13431;51.352;6.412;2023-02-04T15:16:29;10.00;99.90
25536;DHT22;13431;51.352;6.412;2023-02-04T15:18:57;10.10;99.90
25536;DHT22;13431;51.352;6.412;2023-02-04T15:21:24;10.10;99.90
25536;DHT22;13431;51.352;6.412;2023-02-04T15:23:53;10.10;99.90
25536;DHT22;13431;51.352;6.412;2023-02-04T15:26:20;10.00;99.90
25536;DHT22;13431;51.352;6.412;2023-02-04T15:28:48;10.00;99.90
25536;DHT22;13431;51.352;6.412;2023-02-04T15:31:15;10.00;99.90
25536;DHT22;13431;51.352;6.412;2023-02-04T15:33:43;9.90;99.90
25536;DHT22;13431;51.352;6.412;2023-02-04T15:36:10;9.80;99.90
25536;DHT22;13431;51.352;6.412;2023-02-04T15:38:38;9.80;99.90
25536;DHT22;13431;51.352;6.412;2023-02-04T15:41:05;9.80;99.90
25536;DHT22;13431;51.352;6.412;2023-02-04T15:43:32;9.70;99.90
25536;DHT22;13431;51.352;6.412;2023-02-04T15:46:00;9.70;99.90
25536;DHT22;13431;51.352;6.412;2023-02-04T15:48:27;9.60;99.90
25536;DHT22;13431;51.352;6.412;2023-02-04T15:50:55;9.60;99.90
25536;DHT22;13431;51.352;6.412;2023-02-04T15:53:22;9.60;99.90
25536;DHT22;13431;51.352;6.412;2023-02-04T15:55:49;9.60;99.90
25536;DHT22;13431;51.352;6.412;2023-02-04T15:58:17;9.60;99.90
25536;DHT22;13431;51.352;6.412;2023-02-04T16:00:44;9.60;99.90
25536;DHT22;13431;51.352;6.412;2023-02-04T16:03:12;9.60;99.90
25536;DHT22;13431;51.352;6.412;2023-02-04T16:05:39;9.50;99.90
25536;DHT22;13431;51.352;6.412;2023-02-04T16:08:06;9.50;99.90
25536;DHT22;13431;51.352;6.412;2023-02-04T16:10:33;9.50;99.90